sensor_id;sensor_type;location;lat;lon;timestamp;P1;durP1;ratioP1;P2;durP2;ratioP2
56013;SDS011;41893;55.868;37.632;2022-08-26T00:02:17;57.67;;;33.15;;
56013;SDS011;41893;55.868;37.632;2022-08-26T00:04:43;49.33;;;28.23;;
56013;SDS011;41893;55.868;37.632;2022-08-26T00:07:09;58.78;;;31.63;;
56013;SDS011;41893;55.868;37.632;2022-08-26T00:09:35;60.83;;;30.15;;
56013;SDS011;41893;55.868;37.632;2022-08-26T00:12:00;56.63;;;32.28;;
56013;SDS011;41893;55.868;37.632;2022-08-26T00:14:26;68.38;;;32.85;;
56013;SDS011;41893;55.868;37.632;2022-08-26T00:16:52;65.22;;;34.53;;
56013;SDS011;41893;55.868;37.632;2022-08-26T00:19:19;63.53;;;33.85;;
56013;SDS011;41893;55.868;37.632;2022-08-26T00:21:46;57.33;;;30.98;;
56013;SDS011;41893;55.868;37.632;2022-08-26T00:24:12;59.72;;;33.20;;
56013;SDS011;41893;55.868;37.632;2022-08-26T00:26:38;55.05;;;31.35;;
56013;SDS011;41893;55.868;37.632;2022-08-26T00:29:04;67.15;;;34.85;;
56013;SDS011;41893;55.868;37.632;2022-08-26T00:31:31;61.70;;;35.17;;
56013;SDS011;41893;55.868;37.632;2022-08-26T00:33:57;59.25;;;37.05;;
56013;SDS011;41893;55.868;37.632;2022-08-26T00:36:23;59.80;;;35.90;;
56013;SDS011;41893;55.868;37.632;2022-08-26T00:38:49;61.67;;;35.47;;
56013;SDS011;41893;55.868;37.632;2022-08-26T00:41:17;62.38;;;36.17;;
56013;SDS011;41893;55.868;37.632;2022-08-26T00:43:44;55.67;;;33.78;;
56013;SDS011;41893;55.868;37.632;2022-08-26T00:46:33;59.30;;;33.35;;
56013;SDS011;41893;55.868;37.632;2022-08-26T00:49:10;61.85;;;34.92;;
56013;SDS011;41893;55.868;37.632;2022-08-26T00:51:44;62.03;;;36.87;;
56013;SDS011;41893;55.868;37.632;2022-08-26T00:54:13;54.78;;;35.58;;
56013;SDS011;41893;55.868;37.632;2022-08-26T00:57:03;65.07;;;35.60;;
56013;SDS011;41893;55.868;37.632;2022-08-26T00:59:30;59.20;;;37.67;;
56013;SDS011;41893;55.868;37.632;2022-08-26T01:01:57;80.57;;;42.90;;
56013;SDS011;41893;55.868;37.632;2022-08-26T01:04:23;66.03;;;37.25;;
56013;SDS011;41893;55.868;37.632;2022-08-26T01:06:50;69.60;;;39.60;;
56013;SDS011;41893;55.868;37.632;2022-08-26T01:09:18;75.13;;;41.78;;
56013;SDS011;41893;55.868;37.632;2022-08-26T01:11:46;73.07;;;43.20;;
56013;SDS011;41893;55.868;37.632;2022-08-26T01:14:15;89.10;;;43.45;;
56013;SDS011;41893;55.868;37.632;2022-08-26T01:16:43;88.68;;;47.58;;
56013;SDS011;41893;55.868;37.632;2022-08-26T01:19:14;92.05;;;49.05;;
56013;SDS011;41893;55.868;37.632;2022-08-26T01:21:48;94.97;;;50.58;;
56013;SDS011;41893;55.868;37.632;2022-08-26T01:24:20;78.78;;;47.50;;
56013;SDS011;41893;55.868;37.632;2022-08-26T01:26:46;85.10;;;48.42;;
56013;SDS011;41893;55.868;37.632;2022-08-26T01:29:17;89.40;;;48.90;;
56013;SDS011;41893;55.868;37.632;2022-08-26T01:31:45;85.78;;;48.08;;
56013;SDS011;41893;55.868;37.632;2022-08-26T01:36:46;71.47;;;45.97;;
56013;SDS011;41893;55.868;37.632;2022-08-26T01:39:14;89.80;;;45.55;;
56013;SDS011;41893;55.868;37.632;2022-08-26T01:41:40;85.43;;;47.63;;
56013;SDS011;41893;55.868;37.632;2022-08-26T01:44:08;80.20;;;46.58;;
56013;SDS011;41893;55.868;37.632;2022-08-26T01:46:38;80.27;;;46.87;;
56013;SDS011;41893;55.868;37.632;2022-08-26T01:49:05;90.25;;;48.80;;
56013;SDS011;41893;55.868;37.632;2022-08-26T01:51:33;74.88;;;49.63;;
56013;SDS011;41893;55.868;37.632;2022-08-26T01:54:01;72.97;;;49.08;;
56013;SDS011;41893;55.868;37.632;2022-08-26T01:56:29;84.80;;;50.47;;
56013;SDS011;41893;55.868;37.632;2022-08-26T01:58:56;89.35;;;50.45;;
56013;SDS011;41893;55.868;37.632;2022-08-26T02:01:24;88.32;;;51.50;;
56013;SDS011;41893;55.868;37.632;2022-08-26T02:04:09;86.30;;;50.35;;
56013;SDS011;41893;55.868;37.632;2022-08-26T02:06:42;88.13;;;49.88;;
56013;SDS011;41893;55.868;37.632;2022-08-26T02:09:09;85.95;;;48.20;;
56013;SDS011;41893;55.868;37.632;2022-08-26T02:11:35;98.63;;;51.15;;
56013;SDS011;41893;55.868;37.632;2022-08-26T02:14:04;86.07;;;49.55;;
56013;SDS011;41893;55.868;37.632;2022-08-26T02:16:37;83.03;;;49.53;;
56013;SDS011;41893;55.868;37.632;2022-08-26T02:19:06;92.30;;;52.05;;
56013;SDS011;41893;55.868;37.632;2022-08-26T02:21:36;95.30;;;52.53;;
56013;SDS011;41893;55.868;37.632;2022-08-26T02:24:11;86.07;;;53.65;;
56013;SDS011;41893;55.868;37.632;2022-08-26T02:26:39;95.32;;;54.88;;
56013;SDS011;41893;55.868;37.632;2022-08-26T02:29:09;95.63;;;55.80;;
56013;SDS011;41893;55.868;37.632;2022-08-26T02:31:43;105.68;;;56.78;;
56013;SDS011;41893;55.868;37.632;2022-08-26T02:34:10;91.00;;;54.90;;
56013;SDS011;41893;55.868;37.632;2022-08-26T02:36:38;102.78;;;57.70;;
56013;SDS011;41893;55.868;37.632;2022-08-26T02:39:04;101.97;;;57.47;;
56013;SDS011;41893;55.868;37.632;2022-08-26T02:41:30;94.68;;;59.60;;
56013;SDS011;41893;55.868;37.632;2022-08-26T02:43:56;97.10;;;59.42;;
56013;SDS011;41893;55.868;37.632;2022-08-26T02:46:22;120.55;;;65.15;;
56013;SDS011;41893;55.868;37.632;2022-08-26T02:48:48;100.35;;;59.38;;
56013;SDS011;41893;55.868;37.632;2022-08-26T02:51:14;102.45;;;60.75;;
56013;SDS011;41893;55.868;37.632;2022-08-26T02:53:39;102.68;;;60.08;;
56013;SDS011;41893;55.868;37.632;2022-08-26T02:56:09;101.40;;;62.45;;
56013;SDS011;41893;55.868;37.632;2022-08-26T02:58:35;111.38;;;61.72;;
56013;SDS011;41893;55.868;37.632;2022-08-26T03:01:01;111.63;;;57.50;;
56013;SDS011;41893;55.868;37.632;2022-08-26T03:03:27;97.03;;;57.97;;
56013;SDS011;41893;55.868;37.632;2022-08-26T03:05:54;96.32;;;57.72;;
56013;SDS011;41893;55.868;37.632;2022-08-26T03:08:20;98.03;;;57.42;;
56013;SDS011;41893;55.868;37.632;2022-08-26T03:10:46;98.63;;;57.63;;
56013;SDS011;41893;55.868;37.632;2022-08-26T03:13:12;100.18;;;59.88;;
56013;SDS011;41893;55.868;37.632;2022-08-26T03:15:38;101.28;;;58.08;;
56013;SDS011;41893;55.868;37.632;2022-08-26T03:18:04;99.40;;;59.10;;
56013;SDS011;41893;55.868;37.632;2022-08-26T03:20:31;98.45;;;61.30;;
56013;SDS011;41893;55.868;37.632;2022-08-26T03:22:57;105.85;;;57.75;;
56013;SDS011;41893;55.868;37.632;2022-08-26T03:25:23;106.18;;;57.95;;
56013;SDS011;41893;55.868;37.632;2022-08-26T03:27:50;103.25;;;57.13;;
56013;SDS011;41893;55.868;37.632;2022-08-26T03:30:16;106.95;;;62.80;;
56013;SDS011;41893;55.868;37.632;2022-08-26T03:33:02;111.53;;;58.88;;
56013;SDS011;41893;55.868;37.632;2022-08-26T03:35:28;105.95;;;58.55;;
56013;SDS011;41893;55.868;37.632;2022-08-26T03:37:54;105.22;;;61.28;;
56013;SDS011;41893;55.868;37.632;2022-08-26T03:40:20;105.63;;;58.78;;
56013;SDS011;41893;55.868;37.632;2022-08-26T03:42:46;100.60;;;58.60;;
56013;SDS011;41893;55.868;37.632;2022-08-26T03:45:13;112.25;;;61.42;;
56013;SDS011;41893;55.868;37.632;2022-08-26T03:47:40;115.38;;;60.28;;
56013;SDS011;41893;55.868;37.632;2022-08-26T03:50:07;113.38;;;62.00;;
56013;SDS011;41893;55.868;37.632;2022-08-26T03:52:35;108.25;;;62.85;;
56013;SDS011;41893;55.868;37.632;2022-08-26T03:55:00;117.05;;;67.55;;
56013;SDS011;41893;55.868;37.632;2022-08-26T03:57:28;130.55;;;68.43;;
56013;SDS011;41893;55.868;37.632;2022-08-26T03:59:54;108.55;;;65.28;;
56013;SDS011;41893;55.868;37.632;2022-08-26T04:02:20;115.10;;;68.50;;
56013;SDS011;41893;55.868;37.632;2022-08-26T04:04:45;101.68;;;66.15;;
56013;SDS011;41893;55.868;37.632;2022-08-26T04:07:11;113.03;;;67.78;;
56013;SDS011;41893;55.868;37.632;2022-08-26T04:09:37;112.32;;;66.90;;
56013;SDS011;41893;55.868;37.632;2022-08-26T04:12:03;124.50;;;68.72;;
56013;SDS011;41893;55.868;37.632;2022-08-26T04:14:29;111.57;;;66.78;;
56013;SDS011;41893;55.868;37.632;2022-08-26T04:16:56;126.55;;;66.40;;
56013;SDS011;41893;55.868;37.632;2022-08-26T04:19:23;103.93;;;66.65;;
56013;SDS011;41893;55.868;37.632;2022-08-26T04:21:50;119.07;;;68.93;;
56013;SDS011;41893;55.868;37.632;2022-08-26T04:24:17;114.50;;;67.65;;
56013;SDS011;41893;55.868;37.632;2022-08-26T04:26:45;128.85;;;70.28;;
56013;SDS011;41893;55.868;37.632;2022-08-26T04:29:14;125.32;;;71.40;;
56013;SDS011;41893;55.868;37.632;2022-08-26T04:31:42;134.27;;;64.07;;
56013;SDS011;41893;55.868;37.632;2022-08-26T04:34:08;119.63;;;70.25;;
56013;SDS011;41893;55.868;37.632;2022-08-26T04:36:34;124.85;;;66.07;;
56013;SDS011;41893;55.868;37.632;2022-08-26T04:39:00;113.10;;;70.65;;
56013;SDS011;41893;55.868;37.632;2022-08-26T04:41:28;117.43;;;70.20;;
56013;SDS011;41893;55.868;37.632;2022-08-26T04:43:56;121.50;;;72.70;;
56013;SDS011;41893;55.868;37.632;2022-08-26T04:46:22;128.32;;;72.55;;
56013;SDS011;41893;55.868;37.632;2022-08-26T04:48:49;121.05;;;68.88;;
56013;SDS011;41893;55.868;37.632;2022-08-26T04:51:16;121.18;;;68.13;;
56013;SDS011;41893;55.868;37.632;2022-08-26T04:53:42;111.30;;;70.93;;
56013;SDS011;41893;55.868;37.632;2022-08-26T04:56:08;121.65;;;70.10;;
56013;SDS011;41893;55.868;37.632;2022-08-26T04:58:34;114.13;;;70.57;;
56013;SDS011;41893;55.868;37.632;2022-08-26T05:01:00;145.18;;;74.35;;
56013;SDS011;41893;55.868;37.632;2022-08-26T05:03:27;148.98;;;76.25;;
56013;SDS011;41893;55.868;37.632;2022-08-26T05:05:52;130.10;;;75.90;;
56013;SDS011;41893;55.868;37.632;2022-08-26T05:08:19;124.68;;;69.90;;
56013;SDS011;41893;55.868;37.632;2022-08-26T05:10:50;126.40;;;69.15;;
56013;SDS011;41893;55.868;37.632;2022-08-26T05:13:20;172.32;;;76.13;;
56013;SDS011;41893;55.868;37.632;2022-08-26T05:15:47;144.20;;;74.95;;
56013;SDS011;41893;55.868;37.632;2022-08-26T05:18:14;138.95;;;73.68;;
56013;SDS011;41893;55.868;37.632;2022-08-26T05:20:46;157.35;;;75.35;;
56013;SDS011;41893;55.868;37.632;2022-08-26T05:23:14;140.35;;;71.65;;
56013;SDS011;41893;55.868;37.632;2022-08-26T05:25:41;128.90;;;69.32;;
56013;SDS011;41893;55.868;37.632;2022-08-26T05:28:09;130.05;;;69.15;;
56013;SDS011;41893;55.868;37.632;2022-08-26T05:30:35;121.22;;;68.32;;
56013;SDS011;41893;55.868;37.632;2022-08-26T05:33:01;131.10;;;69.90;;
56013;SDS011;41893;55.868;37.632;2022-08-26T05:35:28;147.10;;;73.82;;
56013;SDS011;41893;55.868;37.632;2022-08-26T05:37:59;131.45;;;64.90;;
56013;SDS011;41893;55.868;37.632;2022-08-26T05:40:26;126.65;;;64.18;;
56013;SDS011;41893;55.868;37.632;2022-08-26T05:42:52;123.18;;;66.07;;
56013;SDS011;41893;55.868;37.632;2022-08-26T05:45:18;144.88;;;67.10;;
56013;SDS011;41893;55.868;37.632;2022-08-26T05:47:48;142.63;;;64.03;;
56013;SDS011;41893;55.868;37.632;2022-08-26T05:50:14;121.03;;;60.55;;
56013;SDS011;41893;55.868;37.632;2022-08-26T05:52:40;143.95;;;64.60;;
56013;SDS011;41893;55.868;37.632;2022-08-26T05:55:07;117.40;;;58.40;;
56013;SDS011;41893;55.868;37.632;2022-08-26T05:57:32;147.63;;;58.53;;
56013;SDS011;41893;55.868;37.632;2022-08-26T05:59:59;112.22;;;56.17;;
56013;SDS011;41893;55.868;37.632;2022-08-26T06:02:24;122.13;;;59.95;;
56013;SDS011;41893;55.868;37.632;2022-08-26T06:04:50;154.95;;;61.00;;
56013;SDS011;41893;55.868;37.632;2022-08-26T06:07:16;138.93;;;59.67;;
56013;SDS011;41893;55.868;37.632;2022-08-26T06:09:41;126.22;;;59.22;;
56013;SDS011;41893;55.868;37.632;2022-08-26T06:12:07;131.25;;;56.60;;
56013;SDS011;41893;55.868;37.632;2022-08-26T06:14:33;126.63;;;59.78;;
56013;SDS011;41893;55.868;37.632;2022-08-26T06:17:00;111.80;;;54.13;;
56013;SDS011;41893;55.868;37.632;2022-08-26T06:19:26;110.88;;;56.17;;
56013;SDS011;41893;55.868;37.632;2022-08-26T06:21:52;160.40;;;82.55;;
56013;SDS011;41893;55.868;37.632;2022-08-26T06:24:18;118.38;;;53.20;;
56013;SDS011;41893;55.868;37.632;2022-08-26T06:27:03;110.30;;;49.58;;
56013;SDS011;41893;55.868;37.632;2022-08-26T06:29:34;106.05;;;50.20;;
56013;SDS011;41893;55.868;37.632;2022-08-26T06:32:01;120.13;;;49.20;;
56013;SDS011;41893;55.868;37.632;2022-08-26T06:34:27;111.00;;;48.00;;
56013;SDS011;41893;55.868;37.632;2022-08-26T06:36:54;108.38;;;47.75;;
56013;SDS011;41893;55.868;37.632;2022-08-26T06:39:22;106.75;;;49.05;;
56013;SDS011;41893;55.868;37.632;2022-08-26T06:41:47;123.88;;;46.85;;
56013;SDS011;41893;55.868;37.632;2022-08-26T06:44:16;101.72;;;41.92;;
56013;SDS011;41893;55.868;37.632;2022-08-26T06:46:42;102.70;;;36.53;;
56013;SDS011;41893;55.868;37.632;2022-08-26T06:49:08;112.65;;;39.55;;
56013;SDS011;41893;55.868;37.632;2022-08-26T06:51:35;79.88;;;35.90;;
56013;SDS011;41893;55.868;37.632;2022-08-26T06:54:03;96.88;;;36.40;;
56013;SDS011;41893;55.868;37.632;2022-08-26T06:56:34;81.72;;;34.20;;
56013;SDS011;41893;55.868;37.632;2022-08-26T06:59:04;102.38;;;33.40;;
56013;SDS011;41893;55.868;37.632;2022-08-26T07:01:32;78.30;;;32.28;;
56013;SDS011;41893;55.868;37.632;2022-08-26T07:04:03;75.18;;;25.90;;
56013;SDS011;41893;55.868;37.632;2022-08-26T07:06:34;81.00;;;26.15;;
56013;SDS011;41893;55.868;37.632;2022-08-26T07:09:02;66.30;;;24.85;;
56013;SDS011;41893;55.868;37.632;2022-08-26T07:11:33;76.75;;;24.25;;
56013;SDS011;41893;55.868;37.632;2022-08-26T07:13:59;70.20;;;24.92;;
56013;SDS011;41893;55.868;37.632;2022-08-26T07:16:26;72.95;;;24.00;;
56013;SDS011;41893;55.868;37.632;2022-08-26T07:18:53;83.50;;;27.42;;
56013;SDS011;41893;55.868;37.632;2022-08-26T07:21:19;93.45;;;25.00;;
56013;SDS011;41893;55.868;37.632;2022-08-26T07:23:45;71.85;;;20.27;;
56013;SDS011;41893;55.868;37.632;2022-08-26T07:26:15;60.95;;;19.77;;
56013;SDS011;41893;55.868;37.632;2022-08-26T07:28:43;47.43;;;19.37;;
56013;SDS011;41893;55.868;37.632;2022-08-26T07:31:11;72.65;;;20.85;;
56013;SDS011;41893;55.868;37.632;2022-08-26T07:33:39;73.38;;;21.55;;
56013;SDS011;41893;55.868;37.632;2022-08-26T07:36:06;67.50;;;20.50;;
56013;SDS011;41893;55.868;37.632;2022-08-26T07:38:34;48.03;;;16.38;;
56013;SDS011;41893;55.868;37.632;2022-08-26T07:41:00;68.93;;;17.02;;
56013;SDS011;41893;55.868;37.632;2022-08-26T07:43:27;47.45;;;13.65;;
56013;SDS011;41893;55.868;37.632;2022-08-26T07:45:54;43.15;;;13.05;;
56013;SDS011;41893;55.868;37.632;2022-08-26T07:48:20;47.72;;;13.55;;
56013;SDS011;41893;55.868;37.632;2022-08-26T07:50:46;43.10;;;13.35;;
56013;SDS011;41893;55.868;37.632;2022-08-26T07:53:12;47.45;;;12.40;;
56013;SDS011;41893;55.868;37.632;2022-08-26T07:55:38;43.30;;;12.52;;
56013;SDS011;41893;55.868;37.632;2022-08-26T07:58:04;32.22;;;11.48;;
56013;SDS011;41893;55.868;37.632;2022-08-26T08:00:31;41.65;;;10.20;;
56013;SDS011;41893;55.868;37.632;2022-08-26T08:02:58;29.23;;;9.32;;
56013;SDS011;41893;55.868;37.632;2022-08-26T08:05:24;39.58;;;10.48;;
56013;SDS011;41893;55.868;37.632;2022-08-26T08:07:50;25.33;;;9.70;;
56013;SDS011;41893;55.868;37.632;2022-08-26T08:10:22;26.65;;;9.95;;
56013;SDS011;41893;55.868;37.632;2022-08-26T08:12:50;24.85;;;9.75;;
56013;SDS011;41893;55.868;37.632;2022-08-26T08:15:17;29.98;;;11.25;;
56013;SDS011;41893;55.868;37.632;2022-08-26T08:17:45;40.83;;;11.35;;
56013;SDS011;41893;55.868;37.632;2022-08-26T08:20:11;32.42;;;9.40;;
56013;SDS011;41893;55.868;37.632;2022-08-26T08:22:38;36.92;;;9.95;;
56013;SDS011;41893;55.868;37.632;2022-08-26T08:25:04;32.80;;;10.82;;
56013;SDS011;41893;55.868;37.632;2022-08-26T08:27:34;42.25;;;10.40;;
56013;SDS011;41893;55.868;37.632;2022-08-26T08:32:29;19.70;;;10.73;;
56013;SDS011;41893;55.868;37.632;2022-08-26T08:34:56;14.10;;;8.65;;
56013;SDS011;41893;55.868;37.632;2022-08-26T08:37:23;13.07;;;7.82;;
56013;SDS011;41893;55.868;37.632;2022-08-26T08:39:49;13.98;;;7.65;;
56013;SDS011;41893;55.868;37.632;2022-08-26T08:45:19;26.10;;;9.43;;
56013;SDS011;41893;55.868;37.632;2022-08-26T08:47:51;32.10;;;10.73;;
56013;SDS011;41893;55.868;37.632;2022-08-26T08:53:01;27.00;;;8.95;;
56013;SDS011;41893;55.868;37.632;2022-08-26T08:58:16;10.43;;;7.38;;
56013;SDS011;41893;55.868;37.632;2022-08-26T09:00:47;19.48;;;7.93;;
56013;SDS011;41893;55.868;37.632;2022-08-26T09:03:41;28.05;;;7.55;;
56013;SDS011;41893;55.868;37.632;2022-08-26T09:06:07;20.17;;;8.10;;
56013;SDS011;41893;55.868;37.632;2022-08-26T09:08:42;23.95;;;7.88;;
56013;SDS011;41893;55.868;37.632;2022-08-26T09:11:10;18.15;;;10.02;;
56013;SDS011;41893;55.868;37.632;2022-08-26T09:13:38;32.58;;;8.77;;
56013;SDS011;41893;55.868;37.632;2022-08-26T09:16:10;40.85;;;9.13;;
56013;SDS011;41893;55.868;37.632;2022-08-26T09:21:35;14.60;;;8.13;;
56013;SDS011;41893;55.868;37.632;2022-08-26T09:24:02;17.80;;;7.75;;
56013;SDS011;41893;55.868;37.632;2022-08-26T09:29:03;12.88;;;7.40;;
56013;SDS011;41893;55.868;37.632;2022-08-26T09:31:35;18.98;;;7.60;;
56013;SDS011;41893;55.868;37.632;2022-08-26T09:34:13;26.75;;;7.85;;
56013;SDS011;41893;55.868;37.632;2022-08-26T09:36:47;23.13;;;6.45;;
56013;SDS011;41893;55.868;37.632;2022-08-26T09:42:08;19.58;;;8.15;;
56013;SDS011;41893;55.868;37.632;2022-08-26T09:47:50;16.48;;;7.72;;
56013;SDS011;41893;55.868;37.632;2022-08-26T09:52:44;13.52;;;7.13;;
56013;SDS011;41893;55.868;37.632;2022-08-26T09:55:14;14.25;;;7.45;;
56013;SDS011;41893;55.868;37.632;2022-08-26T09:57:50;18.98;;;7.22;;
56013;SDS011;41893;55.868;37.632;2022-08-26T10:02:59;27.75;;;7.43;;
56013;SDS011;41893;55.868;37.632;2022-08-26T10:05:36;16.13;;;7.38;;
56013;SDS011;41893;55.868;37.632;2022-08-26T10:08:15;13.90;;;7.38;;
56013;SDS011;41893;55.868;37.632;2022-08-26T10:10:47;15.45;;;6.90;;
56013;SDS011;41893;55.868;37.632;2022-08-26T10:13:22;16.15;;;7.25;;
56013;SDS011;41893;55.868;37.632;2022-08-26T10:16:07;28.40;;;7.47;;
56013;SDS011;41893;55.868;37.632;2022-08-26T10:24:17;26.20;;;7.55;;
56013;SDS011;41893;55.868;37.632;2022-08-26T10:29:53;25.15;;;7.97;;
56013;SDS011;41893;55.868;37.632;2022-08-26T10:35:15;28.73;;;7.63;;
56013;SDS011;41893;55.868;37.632;2022-08-26T10:42:56;15.90;;;8.65;;
56013;SDS011;41893;55.868;37.632;2022-08-26T10:45:28;31.35;;;8.93;;
56013;SDS011;41893;55.868;37.632;2022-08-26T10:50:36;15.02;;;7.60;;
56013;SDS011;41893;55.868;37.632;2022-08-26T10:56:04;23.75;;;7.88;;
56013;SDS011;41893;55.868;37.632;2022-08-26T10:59:12;37.47;;;9.05;;
56013;SDS011;41893;55.868;37.632;2022-08-26T11:01:48;38.97;;;8.35;;
56013;SDS011;41893;55.868;37.632;2022-08-26T11:04:41;21.95;;;8.05;;
56013;SDS011;41893;55.868;37.632;2022-08-26T11:23:44;8.02;;;7.40;;
56013;SDS011;41893;55.868;37.632;2022-08-26T11:28:39;15.43;;;8.18;;
56013;SDS011;41893;55.868;37.632;2022-08-26T11:31:50;16.77;;;7.05;;
56013;SDS011;41893;55.868;37.632;2022-08-26T11:33:56;20.75;;;7.03;;
56013;SDS011;41893;55.868;37.632;2022-08-26T11:36:37;17.90;;;8.30;;
56013;SDS011;41893;55.868;37.632;2022-08-26T11:39:14;14.07;;;7.80;;
56013;SDS011;41893;55.868;37.632;2022-08-26T11:42:13;12.13;;;7.78;;
56013;SDS011;41893;55.868;37.632;2022-08-26T11:44:46;23.30;;;7.90;;
56013;SDS011;41893;55.868;37.632;2022-08-26T11:47:13;21.13;;;8.55;;
56013;SDS011;41893;55.868;37.632;2022-08-26T11:49:41;12.85;;;7.55;;
56013;SDS011;41893;55.868;37.632;2022-08-26T11:52:12;21.48;;;7.13;;
56013;SDS011;41893;55.868;37.632;2022-08-26T11:54:57;21.02;;;6.90;;
56013;SDS011;41893;55.868;37.632;2022-08-26T11:57:24;20.65;;;6.20;;
56013;SDS011;41893;55.868;37.632;2022-08-26T11:59:51;10.50;;;6.50;;
56013;SDS011;41893;55.868;37.632;2022-08-26T12:02:17;23.20;;;6.03;;
56013;SDS011;41893;55.868;37.632;2022-08-26T12:04:44;16.85;;;6.72;;
56013;SDS011;41893;55.868;37.632;2022-08-26T12:07:14;20.42;;;6.95;;
56013;SDS011;41893;55.868;37.632;2022-08-26T12:09:53;14.75;;;6.72;;
56013;SDS011;41893;55.868;37.632;2022-08-26T12:12:31;7.68;;;6.88;;
56013;SDS011;41893;55.868;37.632;2022-08-26T12:15:05;19.23;;;7.80;;
56013;SDS011;41893;55.868;37.632;2022-08-26T12:17:38;13.73;;;7.68;;
56013;SDS011;41893;55.868;37.632;2022-08-26T12:20:05;17.10;;;6.45;;
56013;SDS011;41893;55.868;37.632;2022-08-26T12:22:41;9.35;;;6.60;;
56013;SDS011;41893;55.868;37.632;2022-08-26T12:25:07;21.60;;;6.72;;
56013;SDS011;41893;55.868;37.632;2022-08-26T12:27:44;12.90;;;7.05;;
56013;SDS011;41893;55.868;37.632;2022-08-26T12:30:11;13.27;;;6.60;;
56013;SDS011;41893;55.868;37.632;2022-08-26T12:32:47;20.05;;;6.88;;
56013;SDS011;41893;55.868;37.632;2022-08-26T12:35:16;18.15;;;6.50;;
56013;SDS011;41893;55.868;37.632;2022-08-26T12:37:44;20.63;;;6.57;;
56013;SDS011;41893;55.868;37.632;2022-08-26T12:43:06;26.48;;;6.35;;
56013;SDS011;41893;55.868;37.632;2022-08-26T12:45:37;9.25;;;5.97;;
56013;SDS011;41893;55.868;37.632;2022-08-26T12:48:11;16.27;;;6.75;;
56013;SDS011;41893;55.868;37.632;2022-08-26T12:50:47;17.80;;;6.40;;
56013;SDS011;41893;55.868;37.632;2022-08-26T12:53:16;15.70;;;5.82;;
56013;SDS011;41893;55.868;37.632;2022-08-26T12:55:47;16.23;;;6.07;;
56013;SDS011;41893;55.868;37.632;2022-08-26T12:58:26;15.80;;;6.43;;
56013;SDS011;41893;55.868;37.632;2022-08-26T13:00:56;28.10;;;5.63;;
56013;SDS011;41893;55.868;37.632;2022-08-26T13:03:29;16.73;;;6.47;;
56013;SDS011;41893;55.868;37.632;2022-08-26T13:08:50;24.38;;;6.30;;
56013;SDS011;41893;55.868;37.632;2022-08-26T13:13:46;22.35;;;7.15;;
56013;SDS011;41893;55.868;37.632;2022-08-26T13:16:13;14.43;;;6.53;;
56013;SDS011;41893;55.868;37.632;2022-08-26T13:18:39;13.55;;;7.38;;
56013;SDS011;41893;55.868;37.632;2022-08-26T13:21:12;30.00;;;9.65;;
56013;SDS011;41893;55.868;37.632;2022-08-26T13:23:43;9.43;;;7.40;;
56013;SDS011;41893;55.868;37.632;2022-08-26T13:26:10;29.20;;;6.97;;
56013;SDS011;41893;55.868;37.632;2022-08-26T13:28:36;31.45;;;7.03;;
56013;SDS011;41893;55.868;37.632;2022-08-26T13:31:02;17.38;;;7.53;;
56013;SDS011;41893;55.868;37.632;2022-08-26T13:33:29;11.45;;;6.32;;
56013;SDS011;41893;55.868;37.632;2022-08-26T13:35:55;21.67;;;6.53;;
56013;SDS011;41893;55.868;37.632;2022-08-26T13:38:22;16.27;;;6.40;;
56013;SDS011;41893;55.868;37.632;2022-08-26T13:40:48;17.83;;;7.15;;
56013;SDS011;41893;55.868;37.632;2022-08-26T13:43:14;13.93;;;6.05;;
56013;SDS011;41893;55.868;37.632;2022-08-26T13:45:40;8.70;;;6.68;;
56013;SDS011;41893;55.868;37.632;2022-08-26T13:48:06;15.27;;;6.30;;
56013;SDS011;41893;55.868;37.632;2022-08-26T13:50:32;12.75;;;7.38;;
56013;SDS011;41893;55.868;37.632;2022-08-26T13:52:59;13.00;;;7.32;;
56013;SDS011;41893;55.868;37.632;2022-08-26T13:55:25;21.05;;;7.03;;
56013;SDS011;41893;55.868;37.632;2022-08-26T13:57:52;9.55;;;8.15;;
56013;SDS011;41893;55.868;37.632;2022-08-26T14:00:18;9.18;;;7.22;;
56013;SDS011;41893;55.868;37.632;2022-08-26T14:02:45;15.82;;;7.25;;
56013;SDS011;41893;55.868;37.632;2022-08-26T14:05:11;7.28;;;6.75;;
56013;SDS011;41893;55.868;37.632;2022-08-26T14:07:38;8.43;;;7.72;;
56013;SDS011;41893;55.868;37.632;2022-08-26T14:10:04;17.92;;;7.13;;
56013;SDS011;41893;55.868;37.632;2022-08-26T14:12:30;17.67;;;7.47;;
56013;SDS011;41893;55.868;37.632;2022-08-26T14:14:56;19.95;;;6.43;;
56013;SDS011;41893;55.868;37.632;2022-08-26T14:17:22;17.80;;;7.03;;
56013;SDS011;41893;55.868;37.632;2022-08-26T14:19:50;16.75;;;7.53;;
56013;SDS011;41893;55.868;37.632;2022-08-26T14:22:17;17.10;;;7.10;;
56013;SDS011;41893;55.868;37.632;2022-08-26T14:24:46;48.15;;;9.13;;
56013;SDS011;41893;55.868;37.632;2022-08-26T14:27:12;20.85;;;6.47;;
56013;SDS011;41893;55.868;37.632;2022-08-26T14:29:38;8.60;;;6.50;;
56013;SDS011;41893;55.868;37.632;2022-08-26T14:32:09;10.90;;;7.13;;
56013;SDS011;41893;55.868;37.632;2022-08-26T14:34:39;12.98;;;6.97;;
56013;SDS011;41893;55.868;37.632;2022-08-26T14:37:06;12.63;;;6.97;;
56013;SDS011;41893;55.868;37.632;2022-08-26T14:39:32;9.40;;;7.03;;
56013;SDS011;41893;55.868;37.632;2022-08-26T14:41:58;22.75;;;7.03;;
56013;SDS011;41893;55.868;37.632;2022-08-26T14:44:27;26.55;;;7.43;;
56013;SDS011;41893;55.868;37.632;2022-08-26T14:46:58;12.45;;;6.85;;
56013;SDS011;41893;55.868;37.632;2022-08-26T14:49:25;21.33;;;7.75;;
56013;SDS011;41893;55.868;37.632;2022-08-26T14:51:52;22.40;;;8.02;;
56013;SDS011;41893;55.868;37.632;2022-08-26T14:54:18;20.33;;;7.30;;
56013;SDS011;41893;55.868;37.632;2022-08-26T14:56:46;23.02;;;8.15;;
56013;SDS011;41893;55.868;37.632;2022-08-26T14:59:29;12.15;;;7.82;;
56013;SDS011;41893;55.868;37.632;2022-08-26T15:01:56;27.55;;;8.73;;
56013;SDS011;41893;55.868;37.632;2022-08-26T15:04:22;26.50;;;8.35;;
56013;SDS011;41893;55.868;37.632;2022-08-26T15:06:50;27.42;;;8.60;;
56013;SDS011;41893;55.868;37.632;2022-08-26T15:09:16;17.70;;;8.45;;
56013;SDS011;41893;55.868;37.632;2022-08-26T15:11:42;14.95;;;7.45;;
56013;SDS011;41893;55.868;37.632;2022-08-26T15:14:08;19.77;;;7.75;;
56013;SDS011;41893;55.868;37.632;2022-08-26T15:16:34;14.43;;;7.80;;
56013;SDS011;41893;55.868;37.632;2022-08-26T15:19:00;22.73;;;7.82;;
56013;SDS011;41893;55.868;37.632;2022-08-26T15:21:29;14.80;;;7.57;;
56013;SDS011;41893;55.868;37.632;2022-08-26T15:23:55;27.52;;;7.95;;
56013;SDS011;41893;55.868;37.632;2022-08-26T15:26:22;11.13;;;9.23;;
56013;SDS011;41893;55.868;37.632;2022-08-26T15:28:48;15.15;;;8.55;;
56013;SDS011;41893;55.868;37.632;2022-08-26T15:31:14;11.82;;;9.02;;
56013;SDS011;41893;55.868;37.632;2022-08-26T15:33:40;19.63;;;9.60;;
56013;SDS011;41893;55.868;37.632;2022-08-26T15:36:07;13.40;;;9.05;;
56013;SDS011;41893;55.868;37.632;2022-08-26T15:38:36;13.75;;;9.05;;
56013;SDS011;41893;55.868;37.632;2022-08-26T15:41:04;21.38;;;9.88;;